sensor_id;sensor_type;location;lat;lon;timestamp;pressure;altitude;pressure_sealevel;temperature
18474;BMP180;30265;52.408;13.500;2022-12-18T00:09:03;103047.00;;;-6.00
18474;BMP180;30265;52.408;13.500;2022-12-18T00:19:26;103049.00;;;-6.00
18474;BMP180;30265;52.408;13.500;2022-12-18T00:29:48;103058.00;;;-6.10
18474;BMP180;30265;52.408;13.500;2022-12-18T00:40:12;103053.00;;;-6.10
18474;BMP180;30265;52.408;13.500;2022-12-18T00:50:34;103040.00;;;-6.10
18474;BMP180;30265;52.408;13.500;2022-12-18T01:00:57;103029.00;;;-6.00
18474;BMP180;30265;52.408;13.500;2022-12-18T01:11:20;103039.00;;;-5.90
18474;BMP180;30265;52.408;13.500;2022-12-18T01:21:43;103047.00;;;-6.10
18474;BMP180;30265;52.408;13.500;2022-12-18T01:32:06;103066.00;;;-6.20
18474;BMP180;30265;52.408;13.500;2022-12-18T01:42:29;103072.00;;;-6.00
18474;BMP180;30265;52.408;13.500;2022-12-18T01:52:53;103069.00;;;-6.20
18474;BMP180;30265;52.408;13.500;2022-12-18T02:03:18;103072.00;;;-6.00
18474;BMP180;30265;52.408;13.500;2022-12-18T02:13:44;103079.00;;;-6.10
18474;BMP180;30265;52.408;13.500;2022-12-18T02:24:18;103093.00;;;-6.30
18474;BMP180;30265;52.408;13.500;2022-12-18T02:34:46;103093.00;;;-6.50
18474;BMP180;30265;52.408;13.500;2022-12-18T02:45:10;103101.00;;;-6.40
18474;BMP180;30265;52.408;13.500;2022-12-18T02:55:42;103117.00;;;-6.40
18474;BMP180;30265;52.408;13.500;2022-12-18T03:06:11;103108.00;;;-6.30
18474;BMP180;30265;52.408;13.500;2022-12-18T03:16:39;103106.00;;;-6.50
18474;BMP180;30265;52.408;13.500;2022-12-18T03:27:05;103111.00;;;-6.40
18474;BMP180;30265;52.408;13.500;2022-12-18T03:37:29;103134.00;;;-6.50
18474;BMP180;30265;52.408;13.500;2022-12-18T03:47:59;103123.00;;;-6.50
18474;BMP180;30265;52.408;13.500;2022-12-18T03:58:29;103135.00;;;-6.70
18474;BMP180;30265;52.408;13.500;2022-12-18T04:09:08;103114.00;;;-6.40
18474;BMP180;30265;52.408;13.500;2022-12-18T04:19:36;103111.00;;;-6.90
18474;BMP180;30265;52.408;13.500;2022-12-18T04:29:58;103123.00;;;-6.60
18474;BMP180;30265;52.408;13.500;2022-12-18T04:40:21;103148.00;;;-6.50
18474;BMP180;30265;52.408;13.500;2022-12-18T04:50:43;103138.00;;;-6.30
18474;BMP180;30265;52.408;13.500;2022-12-18T05:01:06;103147.00;;;-6.20
18474;BMP180;30265;52.408;13.500;2022-12-18T05:11:28;103145.00;;;-6.20
18474;BMP180;30265;52.408;13.500;2022-12-18T05:21:51;103162.00;;;-6.30
18474;BMP180;30265;52.408;13.500;2022-12-18T05:32:13;103169.00;;;-6.30
18474;BMP180;30265;52.408;13.500;2022-12-18T05:42:36;103185.00;;;-6.40
18474;BMP180;30265;52.408;13.500;2022-12-18T05:52:57;103197.00;;;-6.50
18474;BMP180;30265;52.408;13.500;2022-12-18T06:03:20;103183.00;;;-6.40
18474;BMP180;30265;52.408;13.500;2022-12-18T06:13:42;103209.00;;;-6.30
18474;BMP180;30265;52.408;13.500;2022-12-18T06:24:05;103217.00;;;-6.40
18474;BMP180;30265;52.408;13.500;2022-12-18T06:34:27;103231.00;;;-6.50
18474;BMP180;30265;52.408;13.500;2022-12-18T06:44:50;103235.00;;;-6.30
18474;BMP180;30265;52.408;13.500;2022-12-18T06:55:11;103242.00;;;-6.10
18474;BMP180;30265;52.408;13.500;2022-12-18T07:05:39;103266.00;;;-6.40
18474;BMP180;30265;52.408;13.500;2022-12-18T07:16:06;103252.00;;;-6.10
18474;BMP180;30265;52.408;13.500;2022-12-18T07:26:39;103260.00;;;-6.10
18474;BMP180;30265;52.408;13.500;2022-12-18T07:37:00;103263.00;;;-6.20
18474;BMP180;30265;52.408;13.500;2022-12-18T07:47:23;103256.00;;;-6.20
18474;BMP180;30265;52.408;13.500;2022-12-18T07:57:46;103271.00;;;-6.10
18474;BMP180;30265;52.408;13.500;2022-12-18T08:08:14;103262.00;;;-6.20
18474;BMP180;30265;52.408;13.500;2022-12-18T08:18:36;103274.00;;;-6.00
18474;BMP180;30265;52.408;13.500;2022-12-18T08:28:59;103266.00;;;-5.80
18474;BMP180;30265;52.408;13.500;2022-12-18T08:39:21;103268.00;;;-5.70
18474;BMP180;30265;52.408;13.500;2022-12-18T08:49:44;103281.00;;;-5.60
18474;BMP180;30265;52.408;13.500;2022-12-18T09:00:07;103305.00;;;-5.30
18474;BMP180;30265;52.408;13.500;2022-12-18T09:10:30;103321.00;;;-5.20
18474;BMP180;30265;52.408;13.500;2022-12-18T09:20:52;103314.00;;;-5.00
18474;BMP180;30265;52.408;13.500;2022-12-18T09:31:18;103323.00;;;-4.90
18474;BMP180;30265;52.408;13.500;2022-12-18T09:41:43;103324.00;;;-4.70
18474;BMP180;30265;52.408;13.500;2022-12-18T09:52:14;103298.00;;;-4.70
18474;BMP180;30265;52.408;13.500;2022-12-18T10:02:36;103276.00;;;-4.50
18474;BMP180;30265;52.408;13.500;2022-12-18T10:13:06;103245.00;;;-4.20
18474;BMP180;30265;52.408;13.500;2022-12-18T10:23:33;103250.00;;;-4.00
18474;BMP180;30265;52.408;13.500;2022-12-18T10:34:10;103261.00;;;-4.40
18474;BMP180;30265;52.408;13.500;2022-12-18T10:44:32;103250.00;;;-4.30
18474;BMP180;30265;52.408;13.500;2022-12-18T10:54:58;103233.00;;;-4.10
18474;BMP180;30265;52.408;13.500;2022-12-18T11:05:29;103213.00;;;-4.20
18474;BMP180;30265;52.408;13.500;2022-12-18T11:15:53;103211.00;;;-4.20
18474;BMP180;30265;52.408;13.500;2022-12-18T11:26:14;103211.00;;;-4.30
18474;BMP180;30265;52.408;13.500;2022-12-18T11:36:40;103220.00;;;-4.10
18474;BMP180;30265;52.408;13.500;2022-12-18T11:47:07;103214.00;;;-4.10
18474;BMP180;30265;52.408;13.500;2022-12-18T11:57:38;103217.00;;;-3.90
18474;BMP180;30265;52.408;13.500;2022-12-18T12:08:08;103232.00;;;-3.80
18474;BMP180;30265;52.408;13.500;2022-12-18T12:19:06;103229.00;;;-3.70
18474;BMP180;30265;52.408;13.500;2022-12-18T12:29:38;103242.00;;;-3.70
18474;BMP180;30265;52.408;13.500;2022-12-18T12:40:05;103261.00;;;-3.40
18474;BMP180;30265;52.408;13.500;2022-12-18T12:50:47;103254.00;;;-3.50
18474;BMP180;30265;52.408;13.500;2022-12-18T13:01:17;103228.00;;;-3.40
18474;BMP180;30265;52.408;13.500;2022-12-18T13:11:44;103219.00;;;-3.60
18474;BMP180;30265;52.408;13.500;2022-12-18T13:22:50;103229.00;;;-3.60
18474;BMP180;30265;52.408;13.500;2022-12-18T13:44:33;103212.00;;;-4.00
18474;BMP180;30265;52.408;13.500;2022-12-18T13:55:03;103206.00;;;-3.80
18474;BMP180;30265;52.408;13.500;2022-12-18T14:05:30;103208.00;;;-3.80
18474;BMP180;30265;52.408;13.500;2022-12-18T14:15:53;103172.00;;;-3.80
18474;BMP180;30265;52.408;13.500;2022-12-18T14:26:23;103181.00;;;-4.00
18474;BMP180;30265;52.408;13.500;2022-12-18T14:36:54;103159.00;;;-4.20
18474;BMP180;30265;52.408;13.500;2022-12-18T14:47:18;103135.00;;;-4.30
18474;BMP180;30265;52.408;13.500;2022-12-18T14:57:39;103135.00;;;-4.20
18474;BMP180;30265;52.408;13.500;2022-12-18T15:08:34;103146.00;;;-4.10
18474;BMP180;30265;52.408;13.500;2022-12-18T15:18:56;103173.00;;;-4.30
18474;BMP180;30265;52.408;13.500;2022-12-18T15:29:21;103159.00;;;-4.40
18474;BMP180;30265;52.408;13.500;2022-12-18T15:39:43;103166.00;;;-4.20
18474;BMP180;30265;52.408;13.500;2022-12-18T15:50:06;103166.00;;;-4.20
18474;BMP180;30265;52.408;13.500;2022-12-18T16:00:28;103161.00;;;-4.30
18474;BMP180;30265;52.408;13.500;2022-12-18T16:10:51;103156.00;;;-4.40
18474;BMP180;30265;52.408;13.500;2022-12-18T16:21:12;103131.00;;;-4.60
18474;BMP180;30265;52.408;13.500;2022-12-18T16:31:36;103124.00;;;-4.50
18474;BMP180;30265;52.408;13.500;2022-12-18T16:41:58;103125.00;;;-4.50
18474;BMP180;30265;52.408;13.500;2022-12-18T16:52:26;103093.00;;;-4.80
18474;BMP180;30265;52.408;13.500;2022-12-18T17:02:49;103122.00;;;-4.80
18474;BMP180;30265;52.408;13.500;2022-12-18T17:13:12;103109.00;;;-4.80
18474;BMP180;30265;52.408;13.500;2022-12-18T17:23:35;103107.00;;;-5.00
18474;BMP180;30265;52.408;13.500;2022-12-18T17:34:00;103102.00;;;-5.00
18474;BMP180;30265;52.408;13.500;2022-12-18T17:44:22;103123.00;;;-5.00
18474;BMP180;30265;52.408;13.500;2022-12-18T17:54:46;103101.00;;;-5.00
18474;BMP180;30265;52.408;13.500;2022-12-18T18:05:08;103084.00;;;-5.00
18474;BMP180;30265;52.408;13.500;2022-12-18T18:15:34;103065.00;;;-5.00
18474;BMP180;30265;52.408;13.500;2022-12-18T18:26:01;103063.00;;;-5.20
18474;BMP180;30265;52.408;13.500;2022-12-18T18:36:24;103045.00;;;-5.20
18474;BMP180;30265;52.408;13.500;2022-12-18T18:46:46;103015.00;;;-5.40
18474;BMP180;30265;52.408;13.500;2022-12-18T18:57:15;103016.00;;;-5.20
18474;BMP180;30265;52.408;13.500;2022-12-18T19:07:40;102991.00;;;-5.50
18474;BMP180;30265;52.408;13.500;2022-12-18T19:18:05;102991.00;;;-5.40
18474;BMP180;30265;52.408;13.500;2022-12-18T19:28:27;102985.00;;;-5.40
18474;BMP180;30265;52.408;13.500;2022-12-18T19:38:51;102979.00;;;-5.30
18474;BMP180;30265;52.408;13.500;2022-12-18T19:49:13;102966.00;;;-5.30
18474;BMP180;30265;52.408;13.500;2022-12-18T19:59:39;102950.00;;;-5.30
18474;BMP180;30265;52.408;13.500;2022-12-18T20:10:03;102957.00;;;-5.20
18474;BMP180;30265;52.408;13.500;2022-12-18T20:20:29;102963.00;;;-5.20
18474;BMP180;30265;52.408;13.500;2022-12-18T20:30:57;102947.00;;;-5.20
18474;BMP180;30265;52.408;13.500;2022-12-18T20:41:21;102931.00;;;-5.20
18474;BMP180;30265;52.408;13.500;2022-12-18T20:51:43;102926.00;;;-5.20
18474;BMP180;30265;52.408;13.500;2022-12-18T21:02:08;102906.00;;;-5.20
18474;BMP180;30265;52.408;13.500;2022-12-18T21:12:30;102903.00;;;-5.00
18474;BMP180;30265;52.408;13.500;2022-12-18T21:23:04;102881.00;;;-4.90
18474;BMP180;30265;52.408;13.500;2022-12-18T21:33:35;102883.00;;;-5.00
18474;BMP180;30265;52.408;13.500;2022-12-18T21:43:59;102872.00;;;-4.90
18474;BMP180;30265;52.408;13.500;2022-12-18T21:54:28;102896.00;;;-4.90
18474;BMP180;30265;52.408;13.500;2022-12-18T22:04:51;102883.00;;;-4.80
18474;BMP180;30265;52.408;13.500;2022-12-18T22:15:14;102900.00;;;-4.80
18474;BMP180;30265;52.408;13.500;2022-12-18T22:25:42;102861.00;;;-4.70
18474;BMP180;30265;52.408;13.500;2022-12-18T22:36:04;102848.00;;;-4.80
18474;BMP180;30265;52.408;13.500;2022-12-18T22:46:28;102838.00;;;-4.70
18474;BMP180;30265;52.408;13.500;2022-12-18T22:56:51;102810.00;;;-4.80
18474;BMP180;30265;52.408;13.500;2022-12-18T23:07:16;102789.00;;;-4.90
18474;BMP180;30265;52.408;13.500;2022-12-18T23:17:38;102773.00;;;-5.00
18474;BMP180;30265;52.408;13.500;2022-12-18T23:28:01;102747.00;;;-5.00
18474;BMP180;30265;52.408;13.500;2022-12-18T23:38:22;102733.00;;;-5.00
18474;BMP180;30265;52.408;13.500;2022-12-18T23:48:45;102724.00;;;-4.80
18474;BMP180;30265;52.408;13.500;2022-12-18T23:59:07;102682.00;;;-4.80
